Terminal Aerodrome Forecast
Issued by NWS Mobile, AL

Home | Current Version | Previous Version | Text Only | Print | Product List | Glossary On
Versions: 1 2 3 4 5 6 7 8 9 10 11 12 13 14 15 16 17
000
FTUS44 KMOB 261434 CCA
TAFMOB
TAF COR
KMOB 261434Z 2615/2712 07010KT P6SM VCTS SCT030CB SCT060 BKN200
      TEMPO 2615/2618 VRB20KT 2SM TSRA BKN025CB
     FM261800 16012G20KT P6SM VCTS BKN025CB OVC035
      TEMPO 2618/2622 VRB20KT 2SM TSRA BKN025CB
     FM270000 18014KT 4SM BR VCSH OVC050=

USA.gov is the U.S. government's official web portal to all federal, state and local government web resources and services.